Time;durP1;ratioP1;P1;durP2;ratioP2;P2;SDS_P1;SDS_P2;PMS_P1;PMS_P2;Temp;Humidity;BMP_temperature;BMP_pressure;BME280_temperature;BME280_humidity;BME280_pressure;Samples;Min_cycle;Max_cycle;Signal;HPM_P1;HPM_P2
2022/12/22 03:27:53;;;;;;;68.68;28.83;;;;;;;10.02;100.00;100295.53;5010469;28;20041;-69
2022/12/22 03:30:19;;;;;;;72.38;29.65;;;;;;;9.97;100.00;100290.47;5012524;28;20112;-70
2022/12/22 03:32:44;;;;;;;76.65;30.70;;;;;;;9.96;100.00;100281.69;5012268;28;20380;-69
2022/12/22 03:35:09;;;;;;;73.00;31.20;;;;;;;9.97;100.00;100288.66;5011549;28;20018;-69
2022/12/22 03:37:35;;;;;;;77.60;31.35;;;;;;;10.01;100.00;100280.66;5012650;28;20030;-70
2022/12/22 03:40:00;;;;;;;75.25;30.42;;;;;;;10.07;100.00;100276.00;5012330;28;20048;-70
2022/12/22 03:47:53;;;;;;;76.15;30.45;;;;;;;10.06;100.00;100281.31;5011626;28;20064;-71
2022/12/22 03:50:19;;;;;;;74.72;30.00;;;;;;;10.08;100.00;100282.09;5011402;28;20025;-70
2022/12/22 03:52:44;;;;;;;78.47;32.05;;;;;;;10.06;100.00;100284.81;4993838;28;20038;-67
2022/12/22 03:55:09;;;;;;;81.75;31.48;;;;;;;10.03;100.00;100279.69;5011539;28;20222;-68
2022/12/22 03:57:35;;;;;;;81.20;32.42;;;;;;;10.06;100.00;100278.69;5011685;28;20026;-71
2022/12/22 04:00:00;;;;;;;78.00;31.15;;;;;;;10.10;100.00;100291.69;5012206;28;20049;-69
2022/12/22 04:02:25;;;;;;;69.68;30.58;;;;;;;10.13;100.00;100290.69;5012317;28;20026;-69
2022/12/22 04:04:51;;;;;;;75.30;31.98;;;;;;;10.17;100.00;100294.06;5011158;28;20037;-69
2022/12/22 04:07:16;;;;;;;72.25;29.83;;;;;;;10.13;100.00;100295.09;5012206;28;20094;-68
2022/12/22 04:12:53;;;;;;;85.75;32.42;;;;;;;10.15;100.00;100294.13;5010723;28;20476;-70
2022/12/22 04:15:11;;;;;;;76.88;32.28;;;;;;;10.13;100.00;100303.84;5011048;28;20044;-69
2022/12/22 04:17:36;;;;;;;86.28;32.80;;;;;;;10.18;100.00;100307.13;5011035;28;20053;-69
2022/12/22 04:20:01;;;;;;;76.00;32.47;;;;;;;10.16;100.00;100302.84;5009582;28;20101;-66
2022/12/22 04:22:27;;;;;;;85.93;33.00;;;;;;;10.12;100.00;100299.50;5011620;28;20113;-69
2022/12/22 04:24:52;;;;;;;81.63;32.60;;;;;;;10.16;100.00;100305.50;5011811;28;20024;-70
2022/12/22 04:27:18;;;;;;;77.03;32.00;;;;;;;10.19;100.00;100303.59;5012126;28;20037;-70
2022/12/22 04:29:43;;;;;;;79.63;33.45;;;;;;;10.19;100.00;100303.59;5009715;28;20030;-68
2022/12/22 04:32:08;;;;;;;73.90;31.13;;;;;;;10.16;100.00;100310.75;4974418;28;20037;-70
2022/12/22 04:34:33;;;;;;;78.30;32.28;;;;;;;10.16;100.00;100310.75;4990527;28;20043;-68
2022/12/22 04:36:59;;;;;;;72.60;31.83;;;;;;;10.14;100.00;100312.63;4991248;28;20033;-70
2022/12/22 04:39:24;;;;;;;78.82;30.92;;;;;;;10.08;100.00;100309.28;4974095;28;20069;-68
2022/12/22 04:41:49;;;;;;;71.78;30.77;;;;;;;10.09;100.00;100308.38;4992215;28;20049;-69
2022/12/22 04:44:15;;;;;;;74.35;31.05;;;;;;;10.07;100.00;100307.59;4991377;28;20074;-69
2022/12/22 04:46:40;;;;;;;84.22;33.33;;;;;;;10.06;100.00;100313.75;4991526;28;20034;-70
2022/12/22 04:49:05;;;;;;;75.68;32.40;;;;;;;9.98;100.00;100308.81;4990721;28;20109;-66
2022/12/22 04:51:31;;;;;;;73.85;30.17;;;;;;;10.00;100.00;100306.13;4991403;28;20030;-70
2022/12/22 04:53:56;;;;;;;80.38;32.03;;;;;;;9.93;100.00;100318.66;4991663;28;20027;-69
2022/12/22 04:56:21;;;;;;;73.28;30.52;;;;;;;9.99;100.00;100309.66;4990642;28;20482;-69
2022/12/22 04:58:47;;;;;;;66.70;28.88;;;;;;;10.00;100.00;100321.91;4991868;28;20484;-70
2022/12/22 05:01:15;;;;;;;66.68;28.45;;;;;;;9.96;100.00;100325.56;4990639;28;20571;-69
2022/12/22 05:03:40;;;;;;;62.15;27.52;;;;;;;10.00;100.00;100329.81;4994217;28;20729;-68
2022/12/22 05:06:06;;;;;;;62.65;26.05;;;;;;;9.98;100.00;100334.28;5010197;28;20021;-70
2022/12/22 05:08:31;;;;;;;63.63;26.80;;;;;;;9.88;100.00;100343.44;5000350;28;20022;-69
2022/12/22 05:10:57;;;;;;;62.72;26.98;;;;;;;9.92;100.00;100345.03;4972565;28;20026;-68
2022/12/22 05:13:22;;;;;;;55.13;24.25;;;;;;;9.86;100.00;100340.88;4996401;28;20042;-72
2022/12/22 05:15:47;;;;;;;57.35;23.45;;;;;;;9.81;100.00;100341.06;5010638;28;20030;-70
2022/12/22 05:18:13;;;;;;;55.70;22.85;;;;;;;9.78;100.00;100342.97;5000972;28;20034;-71
2022/12/22 05:20:38;;;;;;;55.90;23.70;;;;;;;9.68;100.00;100352.97;5002031;28;20119;-70
2022/12/22 05:23:03;;;;;;;56.20;20.73;;;;;;;9.70;100.00;100353.78;5009716;28;20452;-71
2022/12/22 05:25:29;;;;;;;52.95;20.20;;;;;;;9.68;100.00;100352.97;4991869;28;20037;-69
2022/12/22 05:27:54;;;;;;;55.90;20.40;;;;;;;9.66;100.00;100360.06;5009799;28;20029;-70
2022/12/22 05:30:20;;;;;;;61.10;19.80;;;;;;;9.67;100.00;100367.91;5010334;28;20600;-71
2022/12/22 05:32:45;;;;;;;55.60;20.02;;;;;;;9.66;100.00;100370.59;5008180;28;20025;-71
2022/12/22 05:35:11;;;;;;;51.70;15.88;;;;;;;9.55;100.00;100369.22;5008769;28;20021;-66
2022/12/22 05:37:36;;;;;;;73.43;13.80;;;;;;;9.43;100.00;100375.81;5010112;28;20068;-70
2022/12/22 05:40:02;;;;;;;51.90;11.93;;;;;;;9.40;100.00;100373.28;5009193;28;20045;-71
2022/12/22 05:42:37;;;;;;;47.53;13.27;;;;;;;9.44;100.00;100363.50;4989965;28;20109;-70
2022/12/22 05:45:04;;;;;;;59.15;12.90;;;;;;;9.38;100.00;100364.56;5004167;28;20057;-69
2022/12/22 05:47:29;;;;;;;66.78;13.80;;;;;;;9.33;100.00;100359.47;5009380;28;20033;-67
2022/12/22 05:49:55;;;;;;;46.90;12.68;;;;;;;9.30;100.00;100367.47;5008770;28;20026;-70
2022/12/22 05:52:20;;;;;;;61.58;14.02;;;;;;;9.34;100.00;100368.25;5009299;28;20109;-67
2022/12/22 05:54:45;;;;;;;62.13;14.38;;;;;;;9.27;100.00;100358.84;4992754;28;20029;-70
2022/12/22 05:57:11;;;;;;;61.17;15.73;;;;;;;9.32;100.00;100365.66;4991977;28;20030;-67
2022/12/22 05:59:36;;;;;;;56.15;14.25;;;;;;;9.32;100.00;100372.69;5009843;28;20064;-71
2022/12/22 06:02:01;;;;;;;48.88;13.57;;;;;;;9.33;100.00;100375.25;4975782;28;20042;-71
2022/12/22 06:04:27;;;;;;;66.10;14.60;;;;;;;9.26;100.00;100373.75;4988837;28;20517;-71
2022/12/22 06:06:52;;;;;;;50.85;13.63;;;;;;;9.23;100.00;100373.88;4989561;28;20477;-67
2022/12/22 06:09:17;;;;;;;59.63;14.43;;;;;;;9.16;100.00;100382.91;4990366;28;20439;-71
2022/12/22 06:11:43;;;;;;;59.53;13.43;;;;;;;9.15;100.00;100386.44;4972789;28;20432;-69
2022/12/22 06:14:08;;;;;;;49.00;12.45;;;;;;;9.15;100.00;100391.69;4989772;28;20429;-71
2022/12/22 06:16:33;;;;;;;74.75;12.43;;;;;;;9.10;100.00;100394.50;4996101;28;20022;-66
2022/12/22 06:18:59;;;;;;;57.13;11.77;;;;;;;9.08;100.00;100394.53;5008486;28;20034;-69
2022/12/22 06:21:24;;;;;;;69.85;11.18;;;;;;;9.02;100.00;100397.38;5009105;28;20121;-70
2022/12/22 06:23:49;;;;;;;70.75;12.40;;;;;;;9.01;100.00;100405.31;5009546;28;20061;-70
2022/12/22 06:26:15;;;;;;;41.92;9.95;;;;;;;8.98;100.00;100412.38;5007584;28;20057;-69
2022/12/22 06:28:40;;;;;;;70.22;11.48;;;;;;;8.90;100.00;100418.81;4990976;28;20120;-69
2022/12/22 06:31:05;;;;;;;45.08;11.25;;;;;;;8.95;100.00;100422.16;5008176;28;20030;-70
2022/12/22 06:33:31;;;;;;;54.72;11.98;;;;;;;8.91;100.00;100423.19;5007292;28;20109;-68
2022/12/22 06:35:56;;;;;;;52.20;11.68;;;;;;;8.90;100.00;100424.06;5008688;28;20611;-70
2022/12/22 06:38:21;;;;;;;68.50;13.82;;;;;;;8.88;100.00;100431.16;5009213;28;20034;-69
2022/12/22 06:40:46;;;;;;;70.25;12.55;;;;;;;8.85;100.00;100427.72;5009613;28;20111;-68
2022/12/22 06:43:12;;;;;;;74.28;13.00;;;;;;;8.88;100.00;100428.53;5008712;28;20026;-68
2022/12/22 06:45:42;;;;;;;45.78;13.18;;;;;;;8.83;100.00;100426.06;5009277;28;20468;-70
2022/12/22 06:48:08;;;;;;;63.15;14.70;;;;;;;8.87;100.00;100429.41;5008723;28;20036;-72
2022/12/22 06:50:33;;;;;;;52.78;14.85;;;;;;;8.84;100.00;100438.28;5007977;28;20488;-71
2022/12/22 06:52:59;;;;;;;47.65;15.82;;;;;;;8.75;100.00;100438.56;4991202;28;20034;-69
2022/12/22 06:55:24;;;;;;;115.25;18.02;;;;;;;8.70;100.00;100441.38;5008820;28;20022;-70
2022/12/22 06:57:50;;;;;;;50.13;16.85;;;;;;;8.61;100.00;100437.25;5002900;28;20034;-70
2022/12/22 07:00:16;;;;;;;47.47;16.55;;;;;;;8.62;100.00;100440.72;5008207;28;20743;-70
2022/12/22 07:02:41;;;;;;;48.72;16.90;;;;;;;8.58;100.00;100440.84;5007917;28;20511;-71
2022/12/22 07:05:06;;;;;;;44.08;16.30;;;;;;;8.49;100.00;100441.09;5007062;28;20121;-66
2022/12/22 07:07:32;;;;;;;43.88;16.63;;;;;;;8.42;100.00;100442.19;5008133;28;20025;-69
2022/12/22 07:09:57;;;;;;;51.30;16.65;;;;;;;8.34;100.00;100450.34;5008235;28;20032;-70
2022/12/22 07:12:23;;;;;;;45.88;14.88;;;;;;;8.33;100.00;100457.34;4990993;28;20029;-70
2022/12/22 07:14:48;;;;;;;39.22;13.82;;;;;;;8.29;100.00;100460.97;5008225;28;20455;-69
2022/12/22 07:17:13;;;;;;;46.15;13.45;;;;;;;8.25;100.00;100469.81;5007775;28;20472;-69
2022/12/22 07:19:39;;;;;;;40.33;13.57;;;;;;;8.14;100.00;100466.66;5007051;28;20025;-69
2022/12/22 07:22:04;;;;;;;36.67;12.90;;;;;;;8.11;100.00;100470.25;5007853;28;20029;-65
2022/12/22 07:24:30;;;;;;;34.03;12.40;;;;;;;8.07;100.00;100476.50;5008452;28;20020;-68
2022/12/22 07:26:55;;;;;;;31.90;11.35;;;;;;;8.01;100.00;100487.16;5006935;28;20473;-68
2022/12/22 07:29:22;;;;;;;35.10;11.98;;;;;;;8.00;100.00;100486.28;5007972;28;20030;-67
2022/12/22 07:31:47;;;;;;;36.30;11.90;;;;;;;8.03;100.00;100485.34;4990711;28;20061;-67
2022/12/22 07:34:12;;;;;;;34.85;11.50;;;;;;;8.02;100.00;100486.25;5006823;28;20113;-67
2022/12/22 07:36:38;;;;;;;40.13;12.38;;;;;;;7.97;100.00;100487.25;5008307;28;20100;-69
2022/12/22 07:39:03;;;;;;;41.17;13.07;;;;;;;7.95;100.00;100496.09;4990216;28;20107;-70
2022/12/22 07:44:12;;;;;;;42.85;13.73;;;;;;;7.80;100.00;100511.31;5007999;28;20040;-70
2022/12/22 07:46:38;;;;;;;41.47;13.90;;;;;;;7.76;100.00;100514.94;5003697;28;20403;-70
2022/12/22 07:51:49;;;;;;;40.03;14.13;;;;;;;7.75;100.00;100507.97;5008764;28;20048;-70
2022/12/22 07:54:15;;;;;;;40.40;14.45;;;;;;;7.73;100.00;100506.31;5007153;28;20026;-71
2022/12/22 07:56:41;;;;;;;41.65;15.00;;;;;;;7.75;100.00;100501.88;5011239;28;20038;-70
2022/12/22 07:59:07;;;;;;;44.15;14.80;;;;;;;7.73;100.00;100499.28;5002138;28;20037;-69
2022/12/22 08:01:33;;;;;;;36.33;13.93;;;;;;;7.71;100.00;100501.94;4998979;28;20025;-69
2022/12/22 08:03:58;;;;;;;39.85;13.18;;;;;;;7.72;100.00;100508.06;5010203;28;20046;-71
2022/12/22 08:06:24;;;;;;;47.85;15.30;;;;;;;7.73;100.00;100509.78;5006913;28;20030;-70
2022/12/22 08:08:49;;;;;;;48.55;15.55;;;;;;;7.73;100.00;100516.81;5005357;28;20030;-69
2022/12/22 08:11:15;;;;;;;34.95;13.77;;;;;;;7.77;100.00;100531.56;4983486;28;20061;-70
2022/12/22 08:13:42;;;;;;;41.38;14.95;;;;;;;7.76;100.00;100530.69;4999381;28;20480;-69
2022/12/22 08:16:09;;;;;;;37.40;13.50;;;;;;;7.71;100.00;100537.81;5006671;28;20030;-69
2022/12/22 08:18:35;;;;;;;38.15;14.60;;;;;;;7.67;100.00;100550.16;5003333;28;20384;-70
2022/12/22 08:21:01;;;;;;;35.65;13.35;;;;;;;7.65;100.00;100557.19;5005982;28;20022;-70
2022/12/22 08:23:26;;;;;;;35.63;12.95;;;;;;;7.65;100.00;100561.59;5008427;28;20066;-69
2022/12/22 08:26:13;;;;;;;34.20;11.30;;;;;;;7.62;100.00;100570.41;5006015;28;20049;-70
2022/12/22 08:29:03;;;;;;;33.20;12.07;;;;;;;7.56;100.00;100581.03;5007380;28;20029;-69
2022/12/22 08:31:29;;;;;;;37.20;12.90;;;;;;;7.53;100.00;100579.34;4981291;28;20113;-68
2022/12/22 08:33:56;;;;;;;31.45;11.80;;;;;;;7.48;100.00;100578.59;5009889;28;20022;-69
2022/12/22 08:36:21;;;;;;;35.95;11.35;;;;;;;7.52;100.00;100580.25;5011044;28;20026;-70
2022/12/22 08:38:47;;;;;;;40.53;12.00;;;;;;;7.49;100.00;100575.06;5008615;28;20034;-70
2022/12/22 08:41:13;;;;;;;32.28;11.48;;;;;;;7.49;100.00;100582.09;5007668;28;20029;-69
2022/12/22 08:43:39;;;;;;;29.75;10.60;;;;;;;7.48;100.00;100581.22;5003120;28;20113;-68
2022/12/22 08:46:04;;;;;;;31.17;11.25;;;;;;;7.44;100.00;100582.22;4989904;28;20105;-68
2022/12/22 08:48:30;;;;;;;30.58;10.65;;;;;;;7.52;100.00;100582.00;4994418;28;20038;-68
2022/12/22 08:50:55;;;;;;;27.40;10.23;;;;;;;7.53;100.00;100587.19;5009089;28;20032;-68
2022/12/22 08:53:20;;;;;;;25.95;12.05;;;;;;;7.59;100.00;100607.19;5009325;28;20022;-70
2022/12/22 08:55:53;;;;;;;24.52;11.63;;;;;;;7.63;100.00;100605.34;5011135;28;20033;-69
2022/12/22 08:58:19;;;;;;;26.70;11.50;;;;;;;7.61;100.00;100604.53;5010705;28;20025;-68
2022/12/22 09:00:45;;;;;;;29.63;11.38;;;;;;;7.60;100.00;100603.66;5005089;28;20029;-66
2022/12/22 09:03:10;;;;;;;26.58;10.88;;;;;;;7.67;100.00;100604.34;5007760;28;20030;-68
2022/12/22 09:05:37;;;;;;;23.15;10.27;;;;;;;7.64;100.00;100605.28;5008383;28;20026;-68
2022/12/22 09:08:06;;;;;;;23.60;9.82;;;;;;;7.67;100.00;100599.09;5009469;28;20030;-69
2022/12/22 09:10:31;;;;;;;22.83;10.05;;;;;;;7.67;100.00;100609.59;5010564;28;20048;-69
2022/12/22 09:12:57;;;;;;;27.15;8.60;;;;;;;7.72;100.00;100612.97;4991772;28;20038;-70
2022/12/22 09:15:23;;;;;;;17.45;8.57;;;;;;;7.77;100.00;100605.84;5011089;28;20117;-65
2022/12/22 09:17:48;;;;;;;21.65;8.65;;;;;;;7.82;100.00;100624.94;4992666;28;20623;-67
2022/12/22 09:20:13;;;;;;;26.55;8.93;;;;;;;7.83;100.00;100620.56;5009662;28;20030;-68
2022/12/22 09:22:39;;;;;;;23.02;8.90;;;;;;;7.88;100.00;100612.56;5009928;28;20524;-69
2022/12/22 09:25:05;;;;;;;19.88;8.07;;;;;;;7.90;100.00;100610.78;5009791;28;20033;-67
2022/12/22 09:27:30;;;;;;;22.75;8.25;;;;;;;7.94;100.00;100610.66;5009885;28;20641;-69
2022/12/22 09:29:56;;;;;;;25.88;9.07;;;;;;;8.04;100.00;100618.28;5009477;28;20022;-68
2022/12/22 09:32:21;;;;;;;22.42;8.45;;;;;;;8.11;100.00;100621.59;5006068;28;20057;-67
2022/12/22 09:34:47;;;;;;;21.25;8.88;;;;;;;8.12;100.00;100620.72;5008232;28;20026;-68
2022/12/22 09:37:16;;;;;;;24.33;9.00;;;;;;;8.19;100.00;100617.00;4991092;28;20033;-68
2022/12/22 09:39:42;;;;;;;25.80;9.40;;;;;;;8.26;100.00;100631.69;5009083;28;20030;-70
2022/12/22 09:42:17;;;;;;;24.58;8.30;;;;;;;8.32;100.00;100636.78;5007921;28;20033;-68
2022/12/22 09:44:44;;;;;;;20.30;9.70;;;;;;;8.41;100.00;100637.41;4975201;28;20121;-67
2022/12/22 09:47:19;;;;;;;19.92;8.70;;;;;;;8.41;100.00;100638.28;4991172;28;20117;-68
2022/12/22 09:49:44;;;;;;;28.70;8.98;;;;;;;8.48;100.00;100638.94;5008293;28;20064;-68
2022/12/22 09:52:22;;;;;;;24.77;9.02;;;;;;;8.56;100.00;100644.88;5009310;28;20053;-69
2022/12/22 09:54:48;;;;;;;21.50;8.80;;;;;;;8.64;100.00;100643.81;4991791;28;20030;-66
2022/12/22 09:57:13;;;;;;;19.20;8.40;;;;;;;8.65;100.00;100650.75;5008803;28;20025;-69
2022/12/22 09:59:39;;;;;;;26.88;8.27;;;;;;;8.67;100.00;100659.47;5008664;28;20036;-68
2022/12/22 10:02:14;;;;;;;29.55;8.25;;;;;;;8.68;100.00;100655.94;5008950;28;20113;-67
2022/12/22 10:04:45;;;;;;;26.48;7.75;;;;;;;8.78;100.00;100653.88;4989293;28;20480;-68
2022/12/22 10:07:31;;;;;;;24.67;8.00;;;;;;;8.78;100.00;100651.25;5009151;28;20033;-67
2022/12/22 10:09:57;;;;;;;22.60;6.90;;;;;;;8.86;100.00;100651.91;5009056;28;20048;-68
2022/12/22 10:12:24;;;;;;;17.55;6.45;;;;;;;8.92;100.00;100657.00;5009412;28;20033;-69
2022/12/22 10:14:51;;;;;;;21.92;6.97;;;;;;;9.03;100.00;100651.38;5008801;28;20038;-72
2022/12/22 10:17:24;;;;;;;19.60;5.82;;;;;;;9.07;100.00;100644.28;4991254;28;20057;-66
2022/12/22 10:19:52;;;;;;;13.85;5.43;;;;;;;9.14;100.00;100647.56;5007882;28;20137;-69
2022/12/22 10:22:28;;;;;;;16.60;5.32;;;;;;;9.09;100.00;100645.06;5009337;28;20033;-69
2022/12/22 10:24:54;;;;;;;15.43;4.40;;;;;;;9.13;100.00;100645.84;5008172;28;20026;-69
2022/12/22 10:27:24;;;;;;;15.10;4.18;;;;;;;9.23;100.00;100648.16;4992110;28;20037;-70
2022/12/22 10:29:50;;;;;;;12.27;3.83;;;;;;;9.27;100.00;100642.81;4986252;28;20443;-69
2022/12/22 10:32:18;;;;;;;13.65;3.60;;;;;;;9.41;100.00;100644.97;5008002;28;20030;-68
2022/12/22 10:35:04;;;;;;;17.33;4.07;;;;;;;9.51;100.00;100651.66;4988883;28;20095;-67
2022/12/22 10:37:37;;;;;;;15.50;4.18;;;;;;;9.56;100.00;100655.00;4990802;28;20065;-68
2022/12/22 10:40:20;;;;;;;10.15;4.93;;;;;;;9.54;100.00;100656.81;5008580;28;20026;-68
2022/12/22 10:42:49;;;;;;;14.88;4.45;;;;;;;9.64;100.00;100665.28;5008475;28;20084;-71
2022/12/22 10:45:20;;;;;;;15.27;4.50;;;;;;;9.68;100.00;100661.66;5008610;28;20099;-68
2022/12/22 10:47:48;;;;;;;15.02;3.97;;;;;;;9.73;100.00;100664.97;4990031;28;20040;-69
2022/12/22 10:50:13;;;;;;;12.48;4.32;;;;;;;9.80;100.00;100677.91;5008921;28;20095;-70
2022/12/22 10:52:39;;;;;;;14.05;4.22;;;;;;;9.88;100.00;100677.66;5009301;28;20480;-66
2022/12/22 10:55:28;;;;;;;13.80;3.85;;;;;;;9.93;100.00;100673.13;5008938;28;20378;-68
2022/12/22 10:58:22;;;;;;;;;;;;;;;9.86;100.00;100675.97;4989444;28;20039;-68
2022/12/22 11:01:01;;;;;;;17.40;4.15;;;;;;;9.98;100.00;100679.09;4975671;28;19965;-68
2022/12/22 11:03:30;;;;;;;12.13;3.60;;;;;;;9.94;100.00;100680.94;4988463;28;20042;-68
2022/12/22 11:05:57;;;;;;;10.05;4.10;;;;;;;9.97;100.00;100680.00;4989077;28;20461;-70
2022/12/22 11:08:23;;;;;;;12.45;4.00;;;;;;;9.91;100.00;100691.59;4996016;28;20053;-67
2022/12/22 11:10:56;;;;;;;7.70;4.00;;;;;;;9.95;100.00;100679.19;4990535;28;20414;-68
2022/12/22 11:13:59;;;;;;;6.07;3.55;;;;;;;10.09;100.00;100679.56;4988643;28;20362;-69
2022/12/22 11:16:36;;;;;;;9.23;4.13;;;;;;;10.18;100.00;100678.38;4971909;28;20769;-68
2022/12/22 11:19:32;;;;;;;6.70;3.72;;;;;;;10.18;100.00;100688.91;4987860;28;20125;-67
2022/12/22 11:22:36;;;;;;;9.45;2.85;;;;;;;10.19;100.00;100695.91;4988986;28;20047;-69
2022/12/22 11:25:30;;;;;;;8.10;3.53;;;;;;;10.17;100.00;100696.91;4990588;28;20414;-68
2022/12/22 11:28:15;;;;;;;6.65;3.63;;;;;;;10.05;100.00;100701.66;4977333;28;20492;-67
2022/12/22 11:30:54;;;;;;;19.65;6.25;;;;;;;9.86;100.00;100702.28;5008260;28;20083;-69
2022/12/22 11:33:27;;;;;;;14.75;5.95;;;;;;;9.88;100.00;100707.50;5006932;28;20102;-67
2022/12/22 11:35:57;;;;;;;15.95;7.15;;;;;;;10.02;100.00;100712.28;5010514;28;20026;-68
2022/12/22 11:38:26;;;;;;;17.67;8.18;;;;;;;10.07;100.00;100706.88;4994257;28;20030;-69
2022/12/22 11:40:59;;;;;;;27.08;9.85;;;;;;;10.01;100.00;100709.69;5011139;28;20527;-68
2022/12/22 11:43:49;;;;;;;17.67;10.10;;;;;;;9.77;100.00;100704.34;4985962;28;20021;-68
2022/12/22 11:46:29;;;;;;;22.85;11.68;;;;;;;9.64;100.00;100709.16;4992535;28;20028;-68
2022/12/22 11:49:04;;;;;;;16.55;11.18;;;;;;;9.30;100.00;100709.28;4991314;28;20033;-66
2022/12/22 11:51:37;;;;;;;20.02;12.23;;;;;;;9.01;100.00;100704.91;5009351;28;20032;-68
2022/12/22 11:54:27;;;;;;;25.50;13.93;;;;;;;8.99;100.00;100707.59;5010797;28;20476;-68
2022/12/22 11:57:09;;;;;;;26.25;13.32;;;;;;;8.83;100.00;100699.28;4993790;28;20116;-70
2022/12/22 11:59:49;;;;;;;25.23;14.02;;;;;;;8.78;100.00;100694.16;5011693;28;20530;-68
2022/12/22 12:02:14;;;;;;;26.98;13.23;;;;;;;8.82;100.00;100682.66;5010597;28;20040;-69
2022/12/22 12:04:58;;;;;;;32.80;14.13;;;;;;;8.88;100.00;100683.41;5010194;28;20564;-69
2022/12/22 12:07:39;;;;;;;32.10;14.30;;;;;;;8.79;100.00;100680.13;5010380;28;20017;-68
2022/12/22 12:10:17;;;;;;;30.85;14.52;;;;;;;8.68;100.00;100688.31;4993184;28;20021;-68
2022/12/22 12:13:00;;;;;;;33.88;13.80;;;;;;;8.73;100.00;100680.28;5010095;28;20473;-70
2022/12/22 12:15:30;;;;;;;27.48;13.65;;;;;;;8.67;100.00;100691.00;5009367;28;20427;-67
2022/12/22 12:17:59;;;;;;;32.08;14.48;;;;;;;8.72;100.00;100691.72;5007518;28;20022;-68
2022/12/22 12:20:27;;;;;;;32.77;14.67;;;;;;;8.54;100.00;100691.34;5010548;28;20029;-70
2022/12/22 12:23:11;;;;;;;29.73;14.63;;;;;;;8.64;100.00;100688.47;5010882;28;20022;-70
2022/12/22 12:25:40;;;;;;;29.48;15.10;;;;;;;8.64;100.00;100680.56;5008276;28;20443;-71
2022/12/22 12:28:26;;;;;;;33.05;14.57;;;;;;;8.63;100.00;100669.19;4992981;28;20085;-71
2022/12/22 12:31:02;;;;;;;30.75;14.68;;;;;;;8.72;100.00;100665.44;5010284;28;20092;-71
2022/12/22 12:33:43;;;;;;;26.70;13.88;;;;;;;8.78;100.00;100662.66;4992251;28;20028;-70
2022/12/22 12:36:37;;;;;;;29.98;14.60;;;;;;;8.84;100.00;100667.72;5010607;28;20185;-70
2022/12/22 12:39:08;;;;;;;31.35;15.20;;;;;;;8.87;100.00;100668.53;5008963;28;20026;-69
2022/12/22 12:41:44;;;;;;;31.17;14.45;;;;;;;8.88;100.00;100668.47;5010905;28;20030;-71
2022/12/22 12:44:17;;;;;;;27.08;14.27;;;;;;;8.84;100.00;100666.84;5010604;28;20040;-68
2022/12/22 12:46:51;;;;;;;26.00;14.13;;;;;;;8.94;100.00;100667.47;4992139;28;20565;-70
2022/12/22 12:49:35;;;;;;;30.88;15.10;;;;;;;9.09;100.00;100666.09;4992161;28;20030;-65
2022/12/22 12:52:04;;;;;;;30.63;15.73;;;;;;;9.10;100.00;100673.94;5009130;28;20048;-69
2022/12/22 12:54:29;;;;;;;31.88;15.75;;;;;;;9.00;100.00;100667.25;5010102;28;20862;-70
2022/12/22 12:56:59;;;;;;;27.67;15.52;;;;;;;9.13;100.00;100656.38;5010625;28;20112;-69
2022/12/22 12:59:55;;;;;;;33.08;17.13;;;;;;;9.23;100.00;100663.06;5010802;28;20021;-69
2022/12/22 13:02:26;;;;;;;28.08;15.00;;;;;;;9.34;100.00;100665.38;4990616;28;20096;-68
2022/12/22 13:05:06;;;;;;;31.38;16.80;;;;;;;9.30;100.00;100664.59;5009170;28;20050;-70
2022/12/22 13:08:10;;;;;;;27.05;15.63;;;;;;;9.32;100.00;100662.78;5009347;28;20025;-69
2022/12/22 13:10:53;;;;;;;26.63;15.32;;;;;;;9.43;100.00;100653.69;5006399;28;20033;-69
2022/12/22 13:13:21;;;;;;;34.92;15.95;;;;;;;9.43;100.00;100640.53;5008586;28;20482;-70
2022/12/22 13:16:07;;;;;;;27.80;16.08;;;;;;;9.45;100.00;100638.72;5010610;28;20033;-69
2022/12/22 13:18:32;;;;;;;34.42;16.88;;;;;;;9.26;100.00;100631.41;4994015;28;20033;-71
2022/12/22 13:20:59;;;;;;;27.98;16.33;;;;;;;9.29;100.00;100631.31;5009390;28;20112;-66
2022/12/22 13:23:34;;;;;;;31.23;17.52;;;;;;;9.43;100.00;100619.50;4991473;28;20380;-70
2022/12/22 13:26:05;;;;;;;29.83;18.00;;;;;;;9.44;100.00;100624.72;5009652;28;20037;-69
2022/12/22 13:28:31;;;;;;;27.98;16.85;;;;;;;9.58;100.00;100615.50;4992116;28;20029;-70
2022/12/22 13:31:04;;;;;;;27.50;17.25;;;;;;;9.63;100.00;100610.94;5008577;28;20026;-70
2022/12/22 13:33:34;;;;;;;28.25;16.77;;;;;;;9.73;100.00;100612.34;4989768;28;20026;-70
2022/12/22 13:36:00;;;;;;;34.90;17.75;;;;;;;9.77;100.00;100599.94;4988446;28;20053;-69
2022/12/22 13:38:29;;;;;;;32.45;18.15;;;;;;;9.80;100.00;100597.22;5008411;28;20048;-69
2022/12/22 13:40:56;;;;;;;31.77;17.50;;;;;;;9.92;100.00;100598.56;5008535;28;20436;-69
2022/12/22 13:43:22;;;;;;;31.38;19.15;;;;;;;10.04;100.00;100597.28;5009344;28;20045;-70
2022/12/22 13:45:49;;;;;;;24.10;16.63;;;;;;;10.03;100.00;100597.31;5009455;28;20109;-69
2022/12/22 13:48:37;;;;;;;31.15;17.75;;;;;;;10.20;100.00;100597.56;4991248;28;20440;-70
2022/12/22 13:51:05;;;;;;;27.83;17.02;;;;;;;10.34;100.00;100586.53;4996362;28;20034;-67
2022/12/22 13:53:40;;;;;;;27.55;16.67;;;;;;;10.22;100.00;100581.72;4990140;28;20022;-71
2022/12/22 13:56:07;;;;;;;31.17;17.75;;;;;;;10.31;100.00;100578.75;5006400;28;20105;-70
2022/12/22 13:58:36;;;;;;;26.38;17.13;;;;;;;10.24;100.00;100583.38;4990791;28;20037;-70
2022/12/22 14:01:09;;;;;;;28.50;16.85;;;;;;;10.19;100.00;100581.81;4991491;28;20022;-68
2022/12/22 14:03:38;;;;;;;29.67;18.23;;;;;;;10.15;100.00;100577.59;5008404;28;20057;-70
2022/12/22 14:06:33;;;;;;;27.00;16.50;;;;;;;10.09;100.00;100579.53;5009414;28;20095;-69
2022/12/22 14:09:11;;;;;;;25.85;16.77;;;;;;;9.96;100.00;100575.59;5008224;28;20117;-69
2022/12/22 14:11:37;;;;;;;28.55;17.85;;;;;;;9.84;100.00;100579.53;5007832;28;20107;-69
2022/12/22 14:14:08;;;;;;;38.92;18.88;;;;;;;9.88;100.00;100572.41;4988606;28;20449;-70
2022/12/22 14:16:33;;;;;;;33.38;18.23;;;;;;;9.83;100.00;100567.28;4970297;28;20034;-71
2022/12/22 14:18:59;;;;;;;31.42;18.40;;;;;;;9.77;100.00;100560.47;4989583;28;20015;-71
2022/12/22 14:21:25;;;;;;;32.65;18.85;;;;;;;9.78;100.00;100551.66;5008384;28;20515;-69
2022/12/22 14:23:50;;;;;;;34.80;19.42;;;;;;;9.81;100.00;100548.94;5007731;28;20033;-70
2022/12/22 14:26:23;;;;;;;27.58;18.20;;;;;;;9.79;100.00;100553.41;5008351;28;20025;-69
2022/12/22 14:28:53;;;;;;;29.48;18.50;;;;;;;9.71;100.00;100550.16;4991320;28;20081;-70
2022/12/22 14:31:19;;;;;;;32.92;19.98;;;;;;;9.60;100.00;100547.91;4975224;28;20133;-72
2022/12/22 14:33:52;;;;;;;34.22;19.85;;;;;;;9.66;100.00;100544.22;4990328;28;20413;-69
2022/12/22 14:36:35;;;;;;;36.85;20.30;;;;;;;9.60;100.00;100546.13;5008760;28;20030;-71
2022/12/22 14:39:08;;;;;;;38.08;21.20;;;;;;;9.53;100.00;100549.91;5005538;28;20018;-70
2022/12/22 14:41:52;;;;;;;43.60;20.95;;;;;;;9.51;100.00;100548.25;5008531;28;20030;-69
2022/12/22 14:44:29;;;;;;;42.13;20.88;;;;;;;9.51;100.00;100546.44;4990354;28;20032;-70
2022/12/22 14:47:16;;;;;;;40.60;22.67;;;;;;;9.47;100.00;100534.31;4989478;28;20490;-70
2022/12/22 14:49:44;;;;;;;39.80;22.02;;;;;;;9.49;100.00;100537.78;5005113;28;20029;-71
2022/12/22 14:52:19;;;;;;;49.13;24.40;;;;;;;9.45;100.00;100536.16;5008100;28;20029;-70
2022/12/22 14:54:47;;;;;;;44.75;24.45;;;;;;;9.46;100.00;100528.19;5008616;28;20030;-71
2022/12/22 14:57:27;;;;;;;38.83;21.67;;;;;;;9.51;100.00;100533.31;4978030;28;20037;-67
2022/12/22 15:00:21;;;;;;;45.10;22.85;;;;;;;9.43;100.00;100530.09;4998953;28;20029;-70
2022/12/22 15:03:24;;;;;;;39.42;23.25;;;;;;;9.48;100.00;100525.50;5004096;28;20042;-69